createdAt,value
2022-08-03T00:02:30.748Z,58.97
2022-08-03T00:05:00.815Z,59.63
2022-08-03T00:07:30.959Z,59.48
2022-08-03T00:10:01.673Z,60.16
2022-08-03T00:12:34.465Z,60.42
2022-08-03T00:15:09.499Z,60.19
2022-08-03T00:17:51.988Z,60.67
2022-08-03T00:20:23.695Z,60.65
2022-08-03T00:22:55.253Z,60.33
2022-08-03T00:25:22.708Z,60.67
2022-08-03T00:27:54.282Z,60.44
2022-08-03T00:30:23.668Z,60.71
2022-08-03T00:32:57.192Z,60.86
2022-08-03T00:35:36.694Z,61.14
2022-08-03T00:38:04.890Z,60.91
2022-08-03T00:40:35.613Z,60.71
2022-08-03T00:43:08.761Z,61.24
2022-08-03T00:45:38.702Z,60.82
2022-08-03T00:48:29.399Z,61.15
2022-08-03T00:50:58.685Z,61.19
2022-08-03T00:53:29.484Z,61.67
2022-08-03T00:56:05.159Z,61.72
2022-08-03T00:58:32.801Z,61.95
2022-08-03T01:01:06.110Z,61.61
2022-08-03T01:03:36.717Z,61.24
2022-08-03T01:06:12.584Z,62.02
2022-08-03T01:08:48.821Z,61.57
2022-08-03T01:11:29.167Z,62.03
2022-08-03T01:14:19.070Z,61.98
2022-08-03T01:17:02.045Z,60.58
2022-08-03T01:19:45.618Z,59.40
2022-08-03T01:22:13.117Z,59.03
2022-08-03T01:24:56.054Z,59.27
2022-08-03T01:27:31.394Z,58.74
2022-08-03T01:30:12.133Z,58.64
2022-08-03T01:33:00.705Z,58.14
2022-08-03T01:35:54.326Z,58.30
2022-08-03T01:38:25.847Z,58.72
2022-08-03T01:40:56.373Z,58.55
2022-08-03T01:44:26.863Z,58.38
2022-08-03T01:46:23.581Z,57.96
2022-08-03T01:48:58.576Z,58.94
2022-08-03T01:52:02.784Z,58.95
2022-08-03T01:54:24.995Z,59.42
2022-08-03T01:56:59.453Z,59.64
2022-08-03T01:59:28.924Z,59.66
2022-08-03T02:02:15.282Z,59.80
2022-08-03T02:04:50.829Z,59.06
2022-08-03T02:07:24.750Z,59.58
2022-08-03T02:09:56.093Z,58.68
2022-08-03T02:12:29.258Z,58.37
2022-08-03T02:14:57.100Z,58.54
2022-08-03T02:17:39.724Z,58.60
2022-08-03T02:20:09.380Z,58.25
2022-08-03T02:22:42.926Z,58.00
2022-08-03T02:25:14.341Z,59.48
2022-08-03T02:28:06.460Z,59.12
2022-08-03T02:30:35.320Z,59.06
2022-08-03T02:33:02.987Z,59.34
2022-08-03T02:35:35.049Z,59.35
2022-08-03T02:38:07.774Z,58.74
2022-08-03T02:40:36.408Z,58.81
2022-08-03T02:43:16.538Z,58.83
2022-08-03T02:45:55.704Z,58.94
2022-08-03T02:48:28.621Z,59.95
2022-08-03T02:51:02.920Z,59.33
2022-08-03T02:53:33.681Z,59.20
2022-08-03T02:56:05.598Z,58.20
2022-08-03T02:58:36.627Z,58.62
2022-08-03T03:01:04.005Z,58.41
2022-08-03T03:03:40.032Z,60.41
2022-08-03T03:06:19.751Z,59.15
2022-08-03T03:08:50.315Z,59.73
2022-08-03T03:11:25.133Z,59.81
2022-08-03T03:13:53.338Z,59.99
2022-08-03T03:16:26.207Z,60.26
2022-08-03T03:18:54.405Z,60.46
2022-08-03T03:21:26.828Z,60.20
2022-08-03T03:24:00.801Z,59.22
2022-08-03T03:26:32.152Z,59.00
2022-08-03T03:29:02.518Z,60.03
2022-08-03T03:31:37.020Z,59.57
2022-08-03T03:34:07.624Z,59.04
2022-08-03T03:36:37.881Z,58.85
2022-08-03T03:39:15.451Z,58.67
2022-08-03T03:41:46.121Z,58.49
2022-08-03T03:44:16.278Z,59.55
2022-08-03T03:46:44.296Z,59.56
2022-08-03T03:49:12.194Z,59.11
2022-08-03T03:51:40.116Z,59.01
2022-08-03T03:54:11.275Z,59.19
2022-08-03T03:56:39.148Z,59.21
2022-08-03T03:59:10.700Z,59.50
2022-08-03T04:01:41.904Z,59.60
2022-08-03T04:04:09.669Z,60.02
2022-08-03T04:06:40.517Z,60.95
2022-08-03T04:09:11.503Z,60.10
2022-08-03T04:11:53.430Z,60.44
2022-08-03T04:14:29.751Z,61.11
2022-08-03T04:17:03.526Z,61.20
2022-08-03T04:19:51.058Z,60.44
2022-08-03T04:22:25.342Z,59.62
2022-08-03T04:24:59.951Z,58.95
2022-08-03T04:27:36.766Z,59.04
2022-08-03T04:30:08.213Z,59.10
2022-08-03T04:32:45.457Z,59.75
2022-08-03T04:35:15.831Z,60.53
2022-08-03T04:37:45.049Z,60.45
2022-08-03T04:40:20.469Z,61.80
2022-08-03T04:42:50.384Z,59.47
2022-08-03T04:45:21.405Z,59.07
2022-08-03T04:47:55.597Z,59.83
2022-08-03T04:50:27.233Z,58.45
2022-08-03T04:53:00.789Z,58.46
2022-08-03T04:55:33.674Z,58.45
2022-08-03T04:58:04.883Z,58.77
2022-08-03T05:00:36.293Z,58.93
2022-08-03T05:03:19.602Z,58.75
2022-08-03T05:06:01.620Z,58.75
2022-08-03T05:08:33.344Z,58.70
2022-08-03T05:11:08.908Z,57.84
2022-08-03T05:13:43.896Z,58.13
2022-08-03T05:16:15.075Z,58.93
2022-08-03T05:18:45.616Z,58.42
2022-08-03T05:21:24.897Z,58.44
2022-08-03T05:24:14.661Z,58.70
2022-08-03T05:26:47.780Z,58.99
2022-08-03T05:29:17.922Z,58.38
2022-08-03T05:31:49.368Z,57.86
2022-08-03T05:34:19.496Z,57.79
2022-08-03T05:36:52.812Z,57.83
2022-08-03T05:39:25.762Z,57.48
2022-08-03T05:41:53.321Z,58.00
2022-08-03T05:44:25.413Z,58.11
2022-08-03T05:46:55.277Z,56.83
2022-08-03T05:49:26.103Z,57.44
2022-08-03T05:52:12.529Z,57.36
2022-08-03T05:54:55.976Z,57.03
2022-08-03T05:57:28.230Z,56.94
2022-08-03T05:59:58.629Z,56.53
2022-08-03T06:02:32.485Z,56.31
2022-08-03T06:05:09.398Z,56.47
2022-08-03T06:07:43.943Z,56.19
2022-08-03T06:10:35.817Z,55.08
2022-08-03T06:13:15.662Z,54.51
2022-08-03T06:15:49.383Z,54.11
2022-08-03T06:18:16.706Z,53.58
2022-08-03T06:20:50.286Z,53.05
2022-08-03T06:23:20.254Z,52.79
2022-08-03T06:25:47.575Z,53.01
2022-08-03T06:28:52.169Z,52.15
2022-08-03T06:31:16.206Z,50.46
2022-08-03T06:34:34.447Z,49.17
2022-08-03T06:36:41.505Z,50.36
2022-08-03T06:39:12.812Z,48.58
2022-08-03T06:41:44.765Z,47.92
2022-08-03T06:44:18.341Z,48.33
2022-08-03T06:46:51.070Z,48.34
2022-08-03T06:49:19.608Z,47.68
2022-08-03T06:52:03.823Z,47.34
2022-08-03T06:54:36.553Z,47.26
2022-08-03T06:57:07.129Z,47.01
2022-08-03T07:00:09.451Z,45.54
2022-08-03T07:02:30.009Z,46.20
2022-08-03T07:04:58.384Z,45.38
2022-08-03T07:07:28.542Z,45.00
2022-08-03T07:09:58.341Z,45.03
2022-08-03T07:12:32.023Z,45.08
2022-08-03T07:15:03.763Z,45.07
2022-08-03T07:17:31.980Z,43.31
2022-08-03T07:20:07.280Z,43.49
2022-08-03T07:22:35.140Z,43.34
2022-08-03T07:25:05.733Z,43.40
2022-08-03T07:27:36.296Z,43.07
2022-08-03T07:30:06.186Z,43.67
2022-08-03T07:32:50.700Z,42.20
2022-08-03T07:35:25.191Z,42.79
2022-08-03T07:37:54.298Z,42.92
2022-08-03T07:40:30.659Z,42.77
2022-08-03T07:42:59.872Z,42.43
2022-08-03T07:45:34.202Z,42.60
2022-08-03T07:48:12.371Z,42.20
2022-08-03T07:50:40.397Z,41.24
2022-08-03T07:53:07.752Z,42.22
2022-08-03T07:55:35.106Z,41.45
2022-08-03T07:58:05.456Z,41.39
2022-08-03T08:00:32.741Z,41.45
2022-08-03T08:03:05.035Z,41.91
2022-08-03T08:05:40.752Z,40.34
2022-08-03T08:08:08.157Z,42.42
2022-08-03T08:10:36.099Z,40.83
2022-08-03T08:13:09.596Z,40.74
2022-08-03T08:15:36.908Z,40.30
2022-08-03T08:18:17.093Z,40.45
2022-08-03T08:20:47.298Z,41.07
2022-08-03T08:23:40.867Z,39.79
2022-08-03T08:26:08.719Z,40.85
2022-08-03T08:28:38.708Z,40.16
2022-08-03T08:31:09.064Z,39.99
2022-08-03T08:36:33.144Z,39.24
2022-08-03T08:39:00.224Z,39.90
2022-08-03T08:41:33.325Z,38.22
2022-08-03T08:44:03.758Z,38.10
2022-08-03T08:46:33.998Z,38.08
2022-08-03T08:49:05.726Z,37.54
2022-08-03T08:51:54.669Z,38.52
2022-08-03T08:54:27.964Z,38.79
2022-08-03T08:57:12.411Z,38.42
2022-08-03T08:59:57.392Z,38.16
2022-08-03T09:02:25.099Z,37.66
2022-08-03T09:04:57.278Z,37.55
2022-08-03T09:07:24.566Z,37.66
2022-08-03T09:10:11.255Z,38.44
2022-08-03T09:12:43.042Z,38.70
2022-08-03T09:15:22.880Z,37.83
2022-08-03T09:17:51.414Z,37.45
2022-08-03T09:20:20.162Z,37.09
2022-08-03T09:22:58.277Z,37.86
2022-08-03T09:25:29.987Z,36.92
2022-08-03T09:28:53.876Z,36.43
2022-08-03T09:31:13.265Z,37.67
2022-08-03T09:33:47.940Z,36.17
2022-08-03T09:36:53.859Z,37.78
2022-08-03T09:39:40.665Z,37.10
2022-08-03T09:42:14.803Z,36.12
2022-08-03T09:44:43.765Z,35.81
2022-08-03T09:47:14.925Z,34.77
2022-08-03T09:49:43.059Z,35.49
2022-08-03T09:52:38.215Z,34.18
2022-08-03T09:55:01.810Z,34.03
2022-08-03T09:57:29.339Z,35.41
2022-08-03T10:00:08.287Z,34.66
2022-08-03T10:02:42.347Z,34.51
2022-08-03T10:05:19.567Z,35.36
2022-08-03T10:07:49.994Z,33.87
2022-08-03T10:10:31.872Z,35.85
2022-08-03T10:13:02.472Z,34.31
2022-08-03T10:16:21.815Z,34.80
2022-08-03T10:18:29.453Z,35.08
2022-08-03T10:21:03.888Z,35.73
2022-08-03T10:23:35.241Z,36.32
2022-08-03T10:26:06.061Z,37.10
2022-08-03T10:28:44.715Z,38.10
2022-08-03T10:31:13.994Z,37.48
2022-08-03T10:33:51.643Z,37.40
2022-08-03T10:36:24.475Z,36.80
2022-08-03T10:38:52.771Z,37.24
2022-08-03T10:41:21.776Z,37.04
2022-08-03T10:43:52.498Z,38.04
2022-08-03T10:46:21.267Z,38.21
2022-08-03T10:48:52.192Z,37.12
2022-08-03T10:51:25.888Z,36.65
2022-08-03T10:53:55.088Z,36.43
2022-08-03T10:56:50.346Z,37.78
2022-08-03T10:59:37.041Z,37.88
2022-08-03T11:02:04.556Z,37.49
2022-08-03T11:04:34.747Z,37.75
2022-08-03T11:07:17.492Z,37.52
2022-08-03T11:09:46.039Z,36.27
2022-08-03T11:12:30.713Z,35.45
2022-08-03T11:15:08.620Z,33.92
2022-08-03T11:17:46.635Z,32.79
2022-08-03T11:20:42.359Z,33.12
2022-08-03T11:23:10.445Z,34.81
2022-08-03T11:25:56.354Z,33.21
2022-08-03T11:28:30.663Z,33.43
2022-08-03T11:31:39.218Z,32.92
2022-08-03T11:34:12.417Z,33.98
2022-08-03T11:36:58.659Z,32.99
2022-08-03T11:39:58.655Z,33.36
2022-08-03T11:42:37.685Z,32.71
2022-08-03T11:45:07.475Z,32.59
2022-08-03T11:47:36.989Z,33.77
2022-08-03T11:50:24.142Z,33.62
2022-08-03T11:52:55.103Z,33.35
2022-08-03T11:55:30.505Z,33.08
2022-08-03T11:59:12.827Z,33.42
2022-08-03T12:00:48.889Z,32.70
2022-08-03T12:03:17.229Z,33.35
2022-08-03T12:05:52.786Z,31.87
2022-08-03T12:08:32.947Z,32.67
2022-08-03T12:11:01.557Z,32.27
2022-08-03T12:14:45.266Z,31.64
2022-08-03T12:16:30.170Z,31.45
2022-08-03T12:18:58.883Z,30.88
2022-08-03T12:21:27.556Z,31.88
2022-08-03T12:23:59.114Z,30.50
2022-08-03T12:26:27.162Z,31.60
2022-08-03T12:28:54.452Z,31.26
2022-08-03T12:31:21.842Z,30.30
2022-08-03T12:33:55.336Z,30.56
2022-08-03T12:36:22.754Z,30.42
2022-08-03T12:38:57.101Z,28.54
2022-08-03T12:41:31.517Z,29.00
2022-08-03T12:43:58.843Z,29.16
2022-08-03T12:46:30.488Z,29.17
2022-08-03T12:48:58.836Z,29.17
2022-08-03T12:51:27.114Z,29.27
2022-08-03T12:53:54.921Z,30.03
2022-08-03T12:56:25.072Z,30.09
2022-08-03T12:58:52.483Z,29.58
2022-08-03T13:01:19.955Z,28.69
2022-08-03T13:03:52.961Z,29.52
2022-08-03T13:06:22.124Z,29.09
2022-08-03T13:08:49.581Z,28.46
2022-08-03T13:11:20.904Z,27.93
2022-08-03T13:13:48.357Z,28.06
2022-08-03T13:16:19.125Z,28.83
2022-08-03T13:18:46.690Z,28.53
2022-08-03T13:21:18.884Z,28.46
2022-08-03T13:23:46.427Z,29.01
2022-08-03T13:26:13.643Z,29.28
2022-08-03T13:28:41.003Z,28.87
2022-08-03T13:31:08.273Z,28.93
2022-08-03T13:33:35.629Z,28.82
2022-08-03T13:36:02.921Z,29.89
2022-08-03T13:38:30.191Z,28.99
2022-08-03T13:40:58.639Z,30.15
2022-08-03T13:43:25.834Z,29.81
2022-08-03T13:45:57.753Z,30.09
2022-08-03T13:48:36.899Z,28.91
2022-08-03T13:51:11.817Z,29.63
2022-08-03T13:53:50.948Z,29.64
2022-08-03T13:56:18.265Z,29.02
2022-08-03T13:58:45.810Z,28.43
2022-08-03T14:01:13.128Z,28.01
2022-08-03T14:03:41.344Z,27.45
2022-08-03T14:06:08.619Z,27.52
2022-08-03T14:08:35.995Z,27.78
2022-08-03T14:11:03.634Z,27.40
2022-08-03T14:13:30.910Z,27.98
2022-08-03T14:15:58.307Z,28.35
2022-08-03T14:18:29.253Z,28.03
2022-08-03T14:21:05.446Z,28.59
2022-08-03T14:23:36.899Z,28.50
2022-08-03T14:26:07.601Z,29.41
2022-08-03T14:28:35.412Z,29.00
2022-08-03T14:31:03.606Z,28.83
2022-08-03T14:33:30.919Z,28.25
2022-08-03T14:35:58.350Z,29.20
2022-08-03T14:38:25.560Z,28.40
2022-08-03T14:40:52.812Z,29.56
2022-08-03T14:43:20.064Z,29.03
2022-08-03T14:45:50.919Z,29.66
2022-08-03T14:50:32.846Z,30.61
2022-08-03T14:51:05.995Z,30.91
2022-08-03T14:53:34.135Z,29.98
2022-08-03T14:56:04.141Z,30.28
2022-08-03T14:58:33.966Z,29.71
2022-08-03T15:01:01.213Z,29.90
2022-08-03T15:03:28.612Z,30.83
2022-08-03T15:05:56.337Z,29.77
2022-08-03T15:08:24.745Z,28.72
2022-08-03T15:10:52.434Z,29.69
2022-08-03T15:13:20.066Z,29.84
2022-08-03T15:15:47.558Z,29.52
2022-08-03T15:18:19.316Z,29.01
2022-08-03T15:20:47.341Z,30.01
2022-08-03T15:23:15.561Z,28.98
2022-08-03T15:26:31.864Z,29.46
2022-08-03T15:28:30.911Z,31.07
2022-08-03T15:30:58.257Z,29.51
2022-08-03T15:33:25.963Z,29.67
2022-08-03T15:35:53.495Z,29.78
2022-08-03T15:38:21.305Z,30.52
2022-08-03T15:40:48.669Z,29.94
2022-08-03T15:43:15.903Z,29.51
2022-08-03T15:45:43.223Z,29.82
2022-08-03T15:48:12.141Z,29.84
2022-08-03T15:50:40.052Z,31.59
2022-08-03T15:53:07.384Z,31.17
2022-08-03T15:55:34.711Z,30.69
2022-08-03T15:59:09.330Z,30.36
2022-08-03T16:00:49.232Z,29.73
2022-08-03T16:03:16.617Z,31.47
2022-08-03T16:05:43.837Z,30.43
2022-08-03T16:08:17.383Z,31.12
2022-08-03T16:10:46.614Z,31.08
2022-08-03T16:13:15.793Z,31.67
2022-08-03T16:15:43.042Z,31.29
2022-08-03T16:18:10.283Z,31.04
2022-08-03T16:20:37.528Z,31.53
2022-08-03T16:23:11.610Z,32.16
2022-08-03T16:25:40.710Z,32.16
2022-08-03T16:28:13.950Z,32.06
2022-08-03T16:30:44.077Z,32.40
2022-08-03T16:33:16.589Z,33.22
2022-08-03T16:35:45.989Z,33.27
2022-08-03T16:38:18.330Z,33.57
2022-08-03T16:40:47.912Z,33.29
2022-08-03T16:43:18.789Z,33.93
2022-08-03T16:45:47.353Z,34.57
2022-08-03T16:48:15.277Z,35.24
2022-08-03T16:50:43.671Z,35.08
2022-08-03T16:53:16.737Z,36.53
2022-08-03T16:55:53.378Z,34.84
2022-08-03T16:58:41.615Z,35.82
2022-08-03T17:01:21.521Z,37.07
2022-08-03T17:04:02.223Z,37.04
2022-08-03T17:06:34.213Z,37.77
2022-08-03T17:09:03.969Z,36.39
2022-08-03T17:11:46.408Z,37.22
2022-08-03T17:14:21.803Z,36.72
2022-08-03T17:16:54.249Z,37.59
2022-08-03T17:19:23.854Z,37.47
2022-08-03T17:22:11.654Z,36.43
2022-08-03T17:24:42.268Z,37.00
2022-08-03T17:28:42.291Z,38.01
2022-08-03T17:30:08.837Z,37.97
2022-08-03T17:32:42.236Z,38.40
2022-08-03T17:35:10.616Z,38.80
2022-08-03T17:37:58.446Z,38.69
2022-08-03T17:40:27.156Z,38.34
2022-08-03T17:42:59.237Z,39.07
2022-08-03T17:45:42.290Z,40.15
2022-08-03T17:48:17.805Z,39.35
2022-08-03T17:50:55.524Z,39.99
2022-08-03T17:53:31.905Z,40.43
2022-08-03T17:56:44.771Z,40.32
2022-08-03T17:58:58.747Z,41.19
2022-08-03T18:02:02.177Z,41.14
2022-08-03T18:04:29.605Z,40.28
2022-08-03T18:06:58.679Z,41.39
2022-08-03T18:10:04.899Z,41.02
2022-08-03T18:12:26.993Z,41.36
2022-08-03T18:15:01.239Z,41.46
2022-08-03T18:17:55.411Z,41.16
2022-08-03T18:20:32.725Z,39.94
2022-08-03T18:23:06.176Z,39.53
2022-08-03T18:25:42.684Z,39.87
2022-08-03T18:28:18.850Z,39.69
2022-08-03T18:30:54.587Z,41.33
2022-08-03T18:34:16.177Z,40.27
2022-08-03T18:36:18.111Z,40.87
2022-08-03T18:38:49.745Z,41.32
2022-08-03T18:41:31.904Z,40.31
2022-08-03T18:44:08.719Z,41.78
2022-08-03T18:46:50.344Z,40.33
2022-08-03T18:49:36.603Z,42.42
2022-08-03T18:52:17.545Z,40.85
2022-08-03T18:55:20.831Z,41.03
2022-08-03T18:57:55.886Z,41.41
2022-08-03T19:00:42.580Z,40.48
2022-08-03T19:03:20.327Z,41.35
2022-08-03T19:06:09.474Z,41.64
2022-08-03T19:08:46.005Z,41.44
2022-08-03T19:11:17.372Z,42.28
2022-08-03T19:13:50.196Z,41.63
2022-08-03T19:16:21.387Z,42.55
2022-08-03T19:18:49.277Z,41.54
2022-08-03T19:21:16.528Z,41.62
2022-08-03T19:23:45.355Z,41.63
2022-08-03T19:26:30.326Z,41.30
2022-08-03T19:29:02.113Z,42.46
2022-08-03T19:31:31.061Z,42.12
2022-08-03T19:34:02.465Z,42.18
2022-08-03T19:36:30.429Z,42.25
2022-08-03T19:39:09.132Z,42.25
2022-08-03T19:41:44.569Z,42.95
2022-08-03T19:44:32.840Z,42.81
2022-08-03T19:47:16.763Z,42.79
2022-08-03T19:50:04.683Z,42.71
2022-08-03T19:52:39.680Z,43.67
2022-08-03T19:55:12.136Z,43.71
2022-08-03T19:57:42.972Z,42.95
2022-08-03T20:00:13.913Z,42.33
2022-08-03T20:02:41.998Z,42.97
2022-08-03T20:05:15.324Z,41.94
2022-08-03T20:07:48.859Z,41.82
2022-08-03T20:10:17.913Z,42.58
2022-08-03T20:12:49.152Z,42.74
2022-08-03T20:15:31.315Z,43.46
2022-08-03T20:18:02.085Z,43.56
2022-08-03T20:20:33.374Z,44.15
2022-08-03T20:23:06.707Z,44.35
2022-08-03T20:25:48.700Z,45.04
2022-08-03T20:28:35.194Z,45.14
2022-08-03T20:34:09.239Z,45.34
2022-08-03T20:36:40.428Z,43.69
2022-08-03T20:39:11.197Z,43.17
2022-08-03T20:41:40.403Z,42.69
2022-08-03T20:44:07.692Z,42.89
2022-08-03T20:46:53.315Z,42.91
2022-08-03T20:49:31.453Z,43.15
2022-08-03T20:52:18.066Z,43.13
2022-08-03T20:54:50.783Z,43.59
2022-08-03T20:57:24.785Z,43.80
2022-08-03T20:59:58.649Z,43.89
2022-08-03T21:02:29.603Z,44.57
2022-08-03T21:05:08.644Z,44.29
2022-08-03T21:08:06.470Z,44.79
2022-08-03T21:13:07.090Z,45.19
2022-08-03T21:13:08.184Z,44.89
2022-08-03T21:13:30.066Z,44.54
2022-08-03T21:16:06.493Z,44.48
2022-08-03T21:18:49.174Z,44.67
2022-08-03T21:21:18.166Z,44.85
2022-08-03T21:23:50.270Z,44.83
2022-08-03T21:26:18.738Z,44.85
2022-08-03T21:28:50.357Z,44.59
2022-08-03T21:31:27.082Z,44.32
2022-08-03T21:33:56.081Z,44.08
2022-08-03T21:36:27.264Z,44.24
2022-08-03T21:38:56.513Z,44.79
2022-08-03T21:41:30.737Z,44.16
2022-08-03T21:44:05.427Z,43.67
2022-08-03T21:46:37.664Z,43.58
2022-08-03T21:50:04.877Z,43.93
2022-08-03T21:51:59.982Z,43.38
2022-08-03T21:54:33.350Z,43.24
2022-08-03T21:57:03.160Z,43.67
2022-08-03T21:59:32.115Z,43.19
2022-08-03T22:01:59.749Z,43.58
2022-08-03T22:04:50.302Z,43.79
2022-08-03T22:07:15.031Z,43.63
2022-08-03T22:09:51.177Z,43.52
2022-08-03T22:12:29.778Z,43.94
2022-08-03T22:15:04.408Z,44.09
2022-08-03T22:17:55.709Z,43.96
2022-08-03T22:20:37.790Z,44.18
2022-08-03T22:23:06.553Z,44.32
2022-08-03T22:25:35.586Z,43.98
2022-08-03T22:28:21.174Z,44.82
2022-08-03T22:30:51.800Z,44.63
2022-08-03T22:33:25.589Z,44.73
2022-08-03T22:35:57.100Z,44.82
2022-08-03T22:38:31.119Z,44.90
2022-08-03T22:41:01.616Z,44.43
2022-08-03T22:43:32.593Z,44.75
2022-08-03T22:46:07.357Z,44.83
2022-08-03T22:48:40.957Z,44.39
2022-08-03T22:51:09.163Z,44.77
2022-08-03T22:53:36.794Z,44.72
2022-08-03T22:56:08.822Z,44.64
2022-08-03T22:58:55.877Z,44.94
2022-08-03T23:01:32.624Z,45.08
2022-08-03T23:04:04.764Z,45.20
2022-08-03T23:06:40.483Z,44.93
2022-08-03T23:09:18.669Z,45.18
2022-08-03T23:11:56.189Z,44.60
2022-08-03T23:14:39.456Z,44.72
2022-08-03T23:17:17.635Z,44.82
2022-08-03T23:19:56.853Z,44.40
2022-08-03T23:22:32.719Z,44.82
2022-08-03T23:25:13.208Z,44.37
2022-08-03T23:27:45.594Z,44.14
2022-08-03T23:30:22.348Z,43.92
2022-08-03T23:33:05.795Z,43.73
2022-08-03T23:36:18.668Z,43.88
2022-08-03T23:38:30.181Z,43.55
2022-08-03T23:41:08.105Z,43.36
2022-08-03T23:43:53.825Z,43.01
2022-08-03T23:46:27.242Z,42.95
2022-08-03T23:49:04.884Z,43.09
2022-08-03T23:51:47.550Z,42.74
2022-08-03T23:54:32.440Z,42.92
2022-08-03T23:57:35.845Z,42.61
